Time;durP1;ratioP1;P1;durP2;ratioP2;P2;SDS_P1;SDS_P2;PMS_P1;PMS_P2;Temp;Humidity;BMP_temperature;BMP_pressure;BME280_temperature;BME280_humidity;BME280_pressure;Samples;Min_cycle;Max_cycle;Signal;HPM_P1;HPM_P2
2022/08/13 00:00:59;;;;;;;6.70;5.00;;;;;;;20.75;71.62;99070.77;104937;1271;75499;-23
2022/08/13 00:03:28;;;;;;;5.10;4.40;;;;;;;20.51;72.66;99068.76;104861;1271;74751;-23
2022/08/13 00:06:15;;;;;;;12.70;6.70;;;;;;;20.77;72.10;99064.81;105060;1271;74430;-24
2022/08/13 00:08:53;;;;;;;5.80;4.90;;;;;;;20.89;71.24;99060.05;105098;1271;62795;-23
2022/08/13 00:14:32;;;;;;;8.00;5.40;;;;;;;20.28;72.13;99039.46;105021;1271;75351;-23
2022/08/13 00:17:07;;;;;;;9.50;6.20;;;;;;;20.03;73.37;99026.08;104986;1274;75948;-24
2022/08/13 00:19:38;;;;;;;6.70;4.10;;;;;;;19.83;74.81;99024.05;104839;1271;74419;-23
2022/08/13 00:22:07;;;;;;;7.10;4.40;;;;;;;20.19;73.35;99012.34;104638;1274;62016;-23
2022/08/13 00:24:55;;;;;;;8.40;4.50;;;;;;;20.24;73.51;98997.82;104771;1271;62069;-24
2022/08/13 00:27:23;;;;;;;6.70;4.90;;;;;;;20.04;74.37;98995.30;105167;1271;75478;-24
2022/08/13 00:29:54;;;;;;;5.50;4.50;;;;;;;19.71;75.24;98991.31;105005;1271;74736;-25
2022/08/13 00:32:29;;;;;;;;;;;;;;;19.45;76.53;98981.50;104621;1274;74355;-24
2022/08/13 00:34:58;;;;;;;5.00;3.50;;;;;;;19.68;76.99;98971.38;105017;1271;61898;-24
2022/08/13 00:37:26;;;;;;;6.20;4.00;;;;;;;19.78;76.34;98966.60;104995;1271;61076;-23
2022/08/13 00:39:56;;;;;;;6.00;3.90;;;;;;;19.64;76.58;98965.05;104739;1271;75813;-23
2022/08/13 00:42:43;;;;;;;5.20;3.70;;;;;;;19.39;77.58;98955.16;104976;1271;77538;-23
2022/08/13 00:45:18;;;;;;;6.20;3.00;;;;;;;19.21;78.61;98943.48;105002;1271;74432;-23
2022/08/13 00:50:35;;;;;;;6.90;3.40;;;;;;;20.10;76.32;98939.61;104862;1271;61842;-22
2022/08/13 00:53:04;;;;;;;6.40;4.40;;;;;;;19.97;75.95;98934.42;104982;1270;75466;-22
2022/08/13 00:55:31;;;;;;;8.70;5.30;;;;;;;19.72;76.58;98929.23;105306;1271;75959;-21
2022/08/13 00:57:58;;;;;;;8.10;4.90;;;;;;;19.44;77.46;98932.09;105192;1271;74409;-22
2022/08/13 01:00:28;;;;;;;5.10;3.10;;;;;;;19.16;78.50;98928.85;104997;1271;62600;-24
2022/08/13 01:02:55;;;;;;;4.40;3.20;;;;;;;19.48;78.41;98921.58;104997;1271;61070;-22
2022/08/13 01:05:24;;;;;;;8.20;3.50;;;;;;;19.77;77.14;98909.97;104988;1270;74528;-22
2022/08/13 01:07:59;;;;;;;5.50;4.00;;;;;;;19.65;77.21;98903.41;104862;1271;76061;-22
2022/08/13 01:10:27;;;;;;;6.20;4.00;;;;;;;19.43;77.08;98901.73;105145;1271;74844;-22
2022/08/13 01:12:54;;;;;;;4.60;3.80;;;;;;;19.17;78.05;98901.16;105082;1271;61142;-22
2022/08/13 01:15:23;;;;;;;5.30;3.10;;;;;;;18.95;79.23;98896.86;105099;1271;61137;-22
2022/08/13 01:17:53;;;;;;;4.80;3.00;;;;;;;19.33;78.88;98891.80;104882;1271;75668;-23
2022/08/13 01:20:26;;;;;;;6.60;3.10;;;;;;;19.75;77.27;98880.30;105180;1271;75986;-22
2022/08/13 01:23:04;;;;;;;3.80;3.10;;;;;;;19.69;76.82;98875.52;105026;1271;74442;-22
2022/08/13 01:25:32;;;;;;;6.20;3.40;;;;;;;19.45;77.38;98864.35;104754;1273;61177;-22
2022/08/13 01:28:22;;;;;;;6.40;4.10;;;;;;;19.16;77.96;98855.88;105219;1271;61153;-22
2022/08/13 01:30:52;;;;;;;7.00;3.00;;;;;;;18.94;79.53;98847.38;104807;1271;75411;-22
2022/08/13 01:33:20;;;;;;;4.60;3.20;;;;;;;19.38;79.14;98843.40;104970;1271;75077;-22
2022/08/13 01:35:48;;;;;;;6.40;3.40;;;;;;;19.88;77.66;98841.02;104841;1271;73359;-23
2022/08/13 01:38:22;;;;;;;4.90;3.90;;;;;;;19.87;76.69;98839.65;104713;1271;61025;-22
2022/08/13 01:40:54;;;;;;;5.40;3.70;;;;;;;19.61;77.11;98831.96;104713;1271;61038;-22
2022/08/13 01:43:21;;;;;;;6.10;3.90;;;;;;;19.32;78.18;98830.55;104944;1271;75590;-22
2022/08/13 01:45:51;;;;;;;5.00;3.40;;;;;;;19.05;79.94;98818.89;104975;1271;76984;-22
2022/08/13 01:51:08;;;;;;;8.40;4.50;;;;;;;19.92;77.23;98806.35;105017;1271;61138;-22
2022/08/13 01:53:46;;;;;;;12.90;6.30;;;;;;;19.86;77.36;98810.54;105071;1271;61900;-22
2022/08/13 01:56:16;;;;;;;11.90;7.00;;;;;;;19.62;77.89;98805.08;104891;1271;75557;-22
2022/08/13 01:58:48;;;;;;;7.60;4.80;;;;;;;19.42;78.51;98796.00;105172;1271;74989;-22
2022/08/13 02:01:36;;;;;;;11.90;5.30;;;;;;;19.21;79.43;98779.25;105211;1271;74287;-22
2022/08/13 02:04:13;;;;;;;;;;;;;;;19.66;78.94;98766.02;105277;1271;60973;-22
2022/08/13 02:06:48;;;;;;;9.50;5.80;;;;;;;19.98;77.54;98756.16;105109;1271;62659;-22
2022/08/13 02:09:17;;;;;;;8.20;5.30;;;;;;;19.87;77.33;98747.75;105211;1271;74511;-22
2022/08/13 02:12:06;;;;;;;7.40;4.70;;;;;;;19.55;77.74;98738.97;105111;1271;75883;-22
2022/08/13 02:14:34;;;;;;;12.10;4.90;;;;;;;19.24;78.68;98730.46;104666;1271;73367;-22
2022/08/13 02:17:24;;;;;;;6.60;4.00;;;;;;;18.97;79.42;98723.82;104680;1271;62726;-21
2022/08/13 02:20:17;;;;;;;5.90;4.10;;;;;;;19.35;79.54;98719.63;104981;1271;61795;-22
2022/08/13 02:22:47;;;;;;;6.00;4.70;;;;;;;19.50;78.69;98707.27;104980;1271;75737;-22
2022/08/13 02:25:16;;;;;;;10.90;4.50;;;;;;;19.34;79.01;98707.45;104832;1271;76188;-22
2022/08/13 02:27:44;;;;;;;6.10;4.40;;;;;;;19.01;80.14;98702.43;104770;1271;73253;-22
2022/08/13 02:30:29;;;;;;;7.60;4.50;;;;;;;18.74;81.50;98708.06;104905;1271;62941;-22
2022/08/13 02:32:59;;;;;;;6.60;4.90;;;;;;;19.17;81.11;98721.87;104766;1271;61748;-22
2022/08/13 02:35:27;;;;;;;12.60;7.50;;;;;;;19.12;80.98;98736.69;105100;1270;75395;-22
2022/08/13 02:38:15;;;;;;;13.80;6.60;;;;;;;18.96;82.05;98753.73;105006;1270;74838;-22
2022/08/13 02:43:31;;;;;;;11.70;5.20;;;;;;;17.79;88.24;98791.15;105031;1274;62525;-21
2022/08/13 02:46:09;;;;;;;10.80;5.30;;;;;;;17.71;88.98;98809.30;104864;1271;62177;-21
2022/08/13 02:48:37;;;;;;;8.00;5.00;;;;;;;17.61;89.22;98822.88;105133;1271;75490;-23
2022/08/13 02:51:06;;;;;;;8.00;4.80;;;;;;;17.61;89.57;98827.77;105280;1271;76099;-21
2022/08/13 02:53:38;;;;;;;7.50;5.20;;;;;;;17.57;89.93;98830.50;104941;1271;74164;-21
2022/08/13 02:56:22;;;;;;;9.40;5.90;;;;;;;17.99;88.12;98819.11;104763;1271;61028;-21
2022/08/13 02:58:55;;;;;;;9.30;5.70;;;;;;;18.19;86.66;98810.48;104913;1271;62194;-21
2022/08/13 03:01:25;;;;;;;7.20;5.30;;;;;;;18.29;86.24;98823.35;104801;1271;75655;-21
2022/08/13 03:03:54;;;;;;;10.60;6.00;;;;;;;18.09;87.04;98828.14;104755;1270;74913;-21
2022/08/13 03:06:23;;;;;;;7.80;4.80;;;;;;;18.39;86.46;98835.14;104660;1271;73451;-21
2022/08/13 03:08:52;;;;;;;7.40;5.10;;;;;;;18.64;84.72;98829.77;105062;1271;61030;-21
2022/08/13 03:11:21;;;;;;;8.00;5.90;;;;;;;18.48;85.20;98828.88;104969;1271;61885;-21
2022/08/13 03:13:54;;;;;;;6.30;4.60;;;;;;;18.20;86.82;98826.86;104961;1271;75463;-22
2022/08/13 03:16:24;;;;;;;11.50;6.20;;;;;;;18.43;85.88;98826.85;104731;1271;74789;-22
2022/08/13 03:18:54;;;;;;;8.30;5.80;;;;;;;18.67;84.67;98826.13;104936;1271;74266;-21
2022/08/13 03:21:25;;;;;;;9.90;6.20;;;;;;;18.42;85.54;98825.71;105051;1271;61224;-21
2022/08/13 03:24:14;;;;;;;6.70;4.90;;;;;;;18.21;86.78;98830.69;104731;1271;61172;-21
2022/08/13 03:26:59;;;;;;;6.90;5.00;;;;;;;18.36;86.48;98838.96;104681;1271;74646;-21
2022/08/13 03:29:26;;;;;;;10.00;6.20;;;;;;;18.61;85.04;98844.09;104670;1271;75922;-21
2022/08/13 03:32:13;;;;;;;7.40;5.70;;;;;;;18.41;85.81;98850.84;104854;1271;74295;-21
2022/08/13 03:34:41;;;;;;;8.30;5.20;;;;;;;18.43;85.75;98854.04;104889;1270;62708;-22
2022/08/13 03:37:10;;;;;;;7.90;5.10;;;;;;;18.36;86.08;98853.52;104905;1272;61875;-21
2022/08/13 03:39:37;;;;;;;8.30;5.10;;;;;;;18.65;84.81;98856.01;104776;1271;74433;-21
2022/08/13 03:42:09;;;;;;;6.40;5.30;;;;;;;18.79;84.22;98853.91;105097;1269;76603;-21
2022/08/13 03:44:41;;;;;;;8.20;5.50;;;;;;;18.83;83.75;98853.10;105061;1271;74958;-21
2022/08/13 03:47:09;;;;;;;5.80;4.40;;;;;;;18.40;85.74;98855.98;105132;1272;62342;-22
2022/08/13 03:49:58;;;;;;;11.10;4.70;;;;;;;18.35;86.67;98857.11;105104;1271;61091;-21
2022/08/13 03:52:26;;;;;;;10.40;5.70;;;;;;;18.77;84.77;98852.55;104798;1272;75593;-21
2022/08/13 03:55:06;;;;;;;7.40;5.30;;;;;;;18.72;85.04;98855.41;104879;1271;76280;-21
2022/08/13 03:57:40;;;;;;;7.90;5.80;;;;;;;18.55;85.80;98860.05;104667;1271;74187;-22
2022/08/13 04:00:28;;;;;;;6.90;5.20;;;;;;;18.47;87.13;98857.13;104660;1271;62925;-21
2022/08/13 04:02:56;;;;;;;8.70;5.70;;;;;;;18.72;85.71;98853.83;104631;1272;61213;-21
2022/08/13 04:05:23;;;;;;;6.80;5.70;;;;;;;19.09;84.22;98859.09;104757;1271;75528;-21
2022/08/13 04:08:10;;;;;;;7.90;5.90;;;;;;;18.84;85.70;98850.84;104971;1271;76144;-21
2022/08/13 04:10:42;;;;;;;8.60;5.20;;;;;;;18.64;86.84;98851.08;104932;1271;76133;-21
2022/08/13 04:13:21;;;;;;;8.70;5.50;;;;;;;18.91;86.38;98850.70;104758;1271;61155;-21
2022/08/13 04:16:16;;;;;;;10.90;6.40;;;;;;;19.08;85.33;98850.64;104802;1271;61100;-21
2022/08/13 04:18:45;;;;;;;6.80;5.60;;;;;;;18.83;86.93;98855.51;104825;1271;75644;-21
2022/08/13 04:21:14;;;;;;;10.70;5.50;;;;;;;18.78;87.37;98850.61;104981;1271;74525;-21
2022/08/13 04:23:50;;;;;;;8.40;5.70;;;;;;;18.97;86.68;98849.98;104834;1274;74326;-21
2022/08/13 04:26:23;;;;;;;8.30;5.70;;;;;;;19.29;85.45;98852.20;104703;1274;61676;-21
2022/08/13 04:29:04;;;;;;;10.00;7.20;;;;;;;19.21;85.47;98848.02;104663;1274;61181;-21
2022/08/13 04:31:31;;;;;;;6.40;4.80;;;;;;;18.65;88.63;98842.73;104712;1271;75628;-21
2022/08/13 04:34:27;;;;;;;7.70;6.40;;;;;;;19.07;87.51;98840.27;104773;1271;75941;-21
2022/08/13 04:37:05;;;;;;;7.60;5.70;;;;;;;19.57;85.11;98849.36;104965;1271;74537;-19
2022/08/13 04:39:33;;;;;;;7.30;6.20;;;;;;;19.46;85.03;98849.62;104783;1271;62261;-22
2022/08/13 04:42:20;;;;;;;6.90;4.90;;;;;;;19.15;87.37;98845.56;104893;1271;61079;-23
2022/08/13 04:45:05;;;;;;;10.70;6.30;;;;;;;19.51;86.19;98845.67;104841;1271;75905;-23
2022/08/13 04:47:42;;;;;;;7.60;6.00;;;;;;;19.87;84.42;98848.22;104788;1271;75799;-22
2022/08/13 04:50:10;;;;;;;10.20;6.80;;;;;;;19.57;85.50;98838.82;105279;1271;74421;-21
2022/08/13 04:52:39;;;;;;;8.30;5.80;;;;;;;19.36;86.55;98834.13;105098;1272;62441;-21
2022/08/13 04:55:10;;;;;;;13.70;7.00;;;;;;;19.76;85.88;98829.71;105133;1271;61985;-21
2022/08/13 04:57:42;;;;;;;8.10;6.20;;;;;;;19.79;84.92;98829.21;105047;1271;75480;-21
2022/08/13 05:00:35;;;;;;;9.20;7.50;;;;;;;19.63;85.82;98822.39;104974;1271;76510;-21
2022/08/13 05:03:13;;;;;;;7.50;6.00;;;;;;;19.33;87.85;98816.55;105285;1271;73586;-21
2022/08/13 05:05:43;;;;;;;8.10;6.30;;;;;;;19.29;88.74;98814.11;105153;1271;61144;-20
2022/08/13 05:08:17;;;;;;;14.10;9.90;;;;;;;19.45;87.49;98810.63;104899;1271;62086;-20
2022/08/13 05:10:45;;;;;;;18.50;10.80;;;;;;;19.34;88.81;98811.65;105112;1271;75345;-21
2022/08/13 05:13:21;;;;;;;15.70;11.00;;;;;;;19.50;88.03;98814.40;105138;1271;75342;-20
2022/08/13 05:15:49;;;;;;;17.20;13.20;;;;;;;19.98;86.33;98816.52;105056;1271;74342;-20
2022/08/13 05:18:16;;;;;;;24.20;17.80;;;;;;;20.19;84.35;98818.17;104907;1271;61912;-20
2022/08/13 05:20:54;;;;;;;32.60;19.40;;;;;;;19.70;86.70;98816.79;104931;1271;61800;-20
2022/08/13 05:23:22;;;;;;;38.80;25.40;;;;;;;19.77;86.96;98815.94;105069;1272;74760;-20
2022/08/13 05:26:10;;;;;;;30.10;18.30;;;;;;;19.33;89.15;98816.38;105130;1271;75142;-20
2022/08/13 05:29:05;;;;;;;24.90;18.10;;;;;;;19.70;88.18;98811.45;105158;1271;73217;-20
2022/08/13 05:31:34;;;;;;;24.30;15.10;;;;;;;19.87;87.40;98807.85;105174;1272;61124;-20
2022/08/13 05:34:21;;;;;;;16.10;9.40;;;;;;;19.62;88.52;98814.07;105064;1271;61130;-20
2022/08/13 05:36:48;;;;;;;8.80;7.00;;;;;;;19.55;89.41;98818.98;105182;1271;75582;-20
2022/08/13 05:39:35;;;;;;;14.60;8.10;;;;;;;20.23;86.87;98823.94;105154;1271;75978;-20
2022/08/13 05:42:18;;;;;;;9.90;7.60;;;;;;;20.64;84.05;98818.19;104855;1271;74091;-20
2022/08/13 05:44:47;;;;;;;11.70;10.00;;;;;;;20.35;84.52;98820.88;104744;1272;62097;-20
2022/08/13 05:47:15;;;;;;;9.40;7.00;;;;;;;20.10;85.88;98823.04;104761;1271;62544;-20
2022/08/13 05:49:43;;;;;;;11.10;6.70;;;;;;;20.18;86.20;98826.47;104857;1272;76231;-20
2022/08/13 05:52:24;;;;;;;9.40;6.90;;;;;;;20.48;84.63;98830.35;104712;1274;76442;-20
2022/08/13 05:55:06;;;;;;;10.10;6.30;;;;;;;20.49;84.21;98834.14;105064;1271;74582;-20
2022/08/13 05:57:53;;;;;;;9.40;6.20;;;;;;;20.11;85.81;98832.77;104836;1271;61126;-20
2022/08/13 06:06:16;;;;;;;6.70;6.00;;;;;;;20.40;84.28;98825.96;104932;1271;75943;-20
2022/08/13 06:08:51;;;;;;;8.40;5.80;;;;;;;20.21;83.62;98823.80;104842;1271;74369;-20
2022/08/13 06:11:18;;;;;;;12.50;6.60;;;;;;;20.31;84.06;98824.04;104784;1271;61310;-19
2022/08/13 06:14:05;;;;;;;7.90;7.00;;;;;;;20.42;83.59;98824.75;105034;1271;60995;-19
2022/08/13 06:16:36;;;;;;;7.80;6.70;;;;;;;20.33;83.39;98822.67;105273;1271;75519;-20
2022/08/13 06:19:26;;;;;;;9.10;5.80;;;;;;;20.10;84.32;98819.83;105081;1271;76021;-20
2022/08/13 06:22:01;;;;;;;7.10;5.80;;;;;;;20.38;83.49;98818.95;104820;1271;74430;-20
2022/08/13 06:24:32;;;;;;;7.60;6.40;;;;;;;20.56;82.40;98816.64;104790;1272;61628;-20
2022/08/13 06:27:01;;;;;;;8.50;7.00;;;;;;;20.32;83.11;98823.74;104756;1272;61559;-20
2022/08/13 06:29:29;;;;;;;10.00;6.80;;;;;;;20.14;83.56;98818.77;104940;1271;75565;-20
2022/08/13 06:31:57;;;;;;;7.80;5.10;;;;;;;19.98;84.40;98818.60;104691;1271;76276;-21
2022/08/13 06:34:25;;;;;;;10.50;5.80;;;;;;;19.96;84.12;98816.52;104720;1272;73442;-20
2022/08/13 06:37:06;;;;;;;8.50;5.60;;;;;;;20.42;82.06;98818.64;104806;1271;62140;-22
2022/08/13 06:39:36;;;;;;;7.60;5.90;;;;;;;20.48;81.50;98811.92;104940;1271;62320;-22
2022/08/13 06:42:04;;;;;;;6.50;5.20;;;;;;;20.26;81.78;98816.45;105034;1271;75451;-21
2022/08/13 06:44:32;;;;;;;10.30;5.10;;;;;;;19.89;82.79;98811.48;104877;1271;75742;-21
2022/08/13 06:47:01;;;;;;;9.20;5.80;;;;;;;20.19;81.82;98809.80;104914;1271;73014;-21
2022/08/13 06:49:31;;;;;;;5.70;4.80;;;;;;;20.29;81.37;98808.64;105059;1271;61920;-21
2022/08/13 06:52:18;;;;;;;18.60;11.60;;;;;;;20.13;82.05;98806.96;104848;1274;61862;-22
2022/08/13 06:54:48;;;;;;;13.60;9.60;;;;;;;19.73;83.75;98802.70;105108;1274;75543;-21
2022/08/13 06:57:19;;;;;;;9.70;5.70;;;;;;;19.55;85.47;98807.09;104805;1273;76183;-20
2022/08/13 06:59:48;;;;;;;12.00;6.80;;;;;;;19.78;84.53;98804.45;104692;1274;74844;-21
2022/08/13 07:02:35;;;;;;;15.10;9.20;;;;;;;19.79;83.64;98799.82;104675;1274;61100;-21
2022/08/13 07:05:05;;;;;;;14.40;10.70;;;;;;;19.82;84.29;98799.61;104669;1271;61096;-21
2022/08/13 07:07:43;;;;;;;14.20;9.30;;;;;;;19.76;84.81;98800.69;104728;1271;75599;-20
2022/08/13 07:10:13;;;;;;;11.60;8.80;;;;;;;19.60;86.29;98800.53;104825;1271;75069;-20
2022/08/13 07:12:41;;;;;;;28.50;17.60;;;;;;;19.78;85.66;98797.82;104767;1271;74316;-21
2022/08/13 07:15:12;;;;;;;13.10;8.50;;;;;;;20.14;84.13;98794.31;104948;1274;61216;-20
2022/08/13 07:17:59;;;;;;;10.50;8.00;;;;;;;20.03;84.34;98790.88;104796;1270;61201;-21
2022/08/13 07:20:27;;;;;;;7.50;6.40;;;;;;;19.50;85.82;98785.23;104909;1271;75509;-20
2022/08/13 07:22:55;;;;;;;10.90;7.10;;;;;;;19.22;88.18;98782.09;104725;1274;76259;-20
2022/08/13 07:25:42;;;;;;;16.80;10.40;;;;;;;19.72;86.15;98781.05;104703;1271;74354;-20
2022/08/13 07:28:26;;;;;;;15.80;7.80;;;;;;;20.02;84.08;98773.80;104967;1271;62030;-20
2022/08/13 07:31:14;;;;;;;11.50;7.30;;;;;;;20.06;83.85;98773.05;104951;1271;61869;-20
2022/08/13 07:33:51;;;;;;;9.60;5.20;;;;;;;19.81;85.00;98769.32;104859;1272;75690;-20
2022/08/13 07:36:27;;;;;;;8.50;5.90;;;;;;;20.02;83.97;98771.14;105046;1271;75846;-21
2022/08/13 07:38:54;;;;;;;8.30;5.90;;;;;;;19.98;84.02;98769.30;104805;1271;73451;-21
2022/08/13 07:41:21;;;;;;;9.80;5.50;;;;;;;20.14;83.28;98766.23;104992;1271;60988;-21
2022/08/13 07:43:48;;;;;;;8.40;5.50;;;;;;;20.04;83.59;98766.98;104995;1271;61468;-21
2022/08/13 07:46:34;;;;;;;5.40;4.10;;;;;;;19.72;84.71;98762.41;105003;1271;75531;-20
2022/08/13 07:49:02;;;;;;;7.40;6.00;;;;;;;20.06;83.80;98760.73;104803;1272;75860;-20
2022/08/13 07:51:31;;;;;;;9.80;5.90;;;;;;;20.04;83.37;98764.74;104747;1272;74694;-21
2022/08/13 07:54:06;;;;;;;6.70;6.00;;;;;;;19.89;83.70;98763.70;104736;1271;62052;-21
2022/08/13 07:56:36;;;;;;;8.80;6.00;;;;;;;19.71;84.64;98760.52;104630;1274;61863;-20
2022/08/13 07:59:12;;;;;;;9.80;5.60;;;;;;;19.98;83.99;98758.72;104767;1274;74513;-21
2022/08/13 08:01:48;;;;;;;11.00;6.70;;;;;;;20.23;82.48;98756.63;104687;1272;76158;-21
2022/08/13 08:04:35;;;;;;;9.40;5.50;;;;;;;20.06;82.77;98762.97;104765;1271;74901;-21
2022/08/13 08:07:07;;;;;;;7.50;4.50;;;;;;;19.76;84.01;98763.71;104932;1271;61007;-21
2022/08/13 08:09:36;;;;;;;7.80;4.70;;;;;;;19.94;83.35;98762.83;104951;1271;61088;-21
2022/08/13 08:14:55;;;;;;;7.80;4.70;;;;;;;20.40;80.50;98752.58;104807;1274;74962;-21
2022/08/13 08:17:26;;;;;;;5.80;4.30;;;;;;;20.09;81.60;98751.05;104937;1271;74429;-22
2022/08/13 08:20:21;;;;;;;6.70;4.80;;;;;;;20.01;82.39;98750.61;105087;1271;61907;-23
2022/08/13 08:23:05;;;;;;;7.10;5.00;;;;;;;19.99;82.68;98749.30;105133;1271;61215;-22
2022/08/13 08:25:38;;;;;;;8.10;5.50;;;;;;;19.98;81.83;98746.77;105055;1272;74878;-21
2022/08/13 08:28:18;;;;;;;5.50;4.70;;;;;;;19.64;83.71;98753.34;104662;1272;76100;-21
2022/08/13 08:43:26;;;;;;;7.80;5.30;;;;;;;20.21;80.98;98745.45;104334;1284;61083;-23
2022/08/13 09:19:54;;;;;;;9.20;3.90;;;;;;;19.73;84.16;98744.78;102667;1297;615121;-23
2022/08/13 09:22:22;;;;;;;8.00;4.00;;;;;;;20.45;81.61;98739.04;104502;1284;62179;-23
2022/08/13 09:24:57;;;;;;;7.60;4.30;;;;;;;21.26;78.57;98738.55;104464;1284;61809;-23
2022/08/13 09:27:27;;;;;;;8.20;3.90;;;;;;;21.45;77.55;98738.07;104135;1284;73876;-23
2022/08/13 09:30:16;;;;;;;14.10;4.50;;;;;;;21.29;76.62;98739.65;103788;1284;77577;-23
2022/08/13 09:32:53;;;;;;;6.20;4.20;;;;;;;21.08;77.13;98733.44;103252;1281;1561078;-22
2022/08/13 09:35:20;;;;;;;5.90;4.50;;;;;;;21.26;77.43;98737.52;104166;1281;61156;-22
2022/08/13 13:09:39;;;;;;;8.80;4.90;;;;;;;22.50;74.32;98662.54;102418;1297;615464;-19
2022/08/13 13:12:16;;;;;;;13.20;7.70;;;;;;;23.44;71.52;98665.27;104360;1284;61469;-19
2022/08/13 13:14:43;;;;;;;11.10;7.20;;;;;;;24.06;68.37;98661.63;104446;1284;62098;-19
2022/08/13 13:17:09;;;;;;;8.80;7.10;;;;;;;24.18;68.18;98665.38;104420;1284;73844;-19
2022/08/13 13:19:59;;;;;;;11.80;7.80;;;;;;;24.18;68.50;98663.50;104419;1284;75953;-19
2022/08/13 13:22:38;;;;;;;17.50;9.40;;;;;;;24.00;68.85;98661.98;103024;1281;1413255;-19
2022/08/13 13:25:06;;;;;;;11.40;7.30;;;;;;;23.96;69.34;98660.98;104503;1281;62060;-19
2022/08/13 13:27:35;;;;;;;12.70;6.90;;;;;;;23.92;69.04;98660.38;104252;1281;61216;-19
2022/08/13 13:30:13;;;;;;;14.50;7.60;;;;;;;24.33;67.48;98655.98;104220;1281;73825;-19
2022/08/13 13:32:46;;;;;;;13.60;7.00;;;;;;;24.36;67.05;98659.21;104269;1281;76060;-19
2022/08/13 13:35:16;;;;;;;8.40;6.40;;;;;;;24.30;67.10;98653.92;104422;1281;74243;-19
2022/08/13 13:38:04;;;;;;;10.20;7.00;;;;;;;23.99;67.66;98658.71;104203;1281;61417;-18
2022/08/13 13:40:39;;;;;;;12.50;6.90;;;;;;;23.73;68.34;98657.31;104196;1281;62692;-19
2022/08/13 13:43:16;;;;;;;11.10;6.40;;;;;;;23.60;68.93;98654.70;104228;1281;74728;-19
2022/08/13 13:45:51;;;;;;;13.10;6.50;;;;;;;23.60;69.13;98650.86;104185;1281;75964;-19
2022/08/13 13:48:27;;;;;;;9.80;7.10;;;;;;;23.85;68.41;98649.04;104524;1281;74864;-19
2022/08/13 13:50:56;;;;;;;10.60;7.90;;;;;;;23.92;68.11;98651.22;104279;1281;62023;-19
2022/08/13 13:53:26;;;;;;;10.90;7.10;;;;;;;23.79;68.97;98653.48;104475;1277;61047;-19
2022/08/13 13:56:14;;;;;;;9.90;7.00;;;;;;;23.68;69.34;98650.48;104403;1277;74765;-19
2022/08/13 13:58:42;;;;;;;11.40;6.20;;;;;;;23.65;69.71;98649.63;104274;1277;74549;-19
2022/08/13 14:01:23;;;;;;;10.60;6.30;;;;;;;24.00;68.87;98646.22;104392;1278;74428;-19
2022/08/13 14:03:51;;;;;;;11.10;6.30;;;;;;;23.98;68.34;98647.73;104288;1278;61201;-19
2022/08/13 14:06:26;;;;;;;10.80;7.40;;;;;;;23.94;68.70;98647.49;104465;1277;61240;-19
2022/08/13 14:08:54;;;;;;;11.50;7.40;;;;;;;23.80;68.97;98646.86;104388;1281;73625;-19
2022/08/13 14:11:21;;;;;;;13.00;7.10;;;;;;;23.76;69.82;98646.52;104180;1281;76050;-19
2022/08/13 14:13:48;;;;;;;8.50;5.90;;;;;;;23.67;70.23;98646.98;104617;1281;74397;-19
2022/08/13 14:16:16;;;;;;;8.00;6.00;;;;;;;24.07;69.35;98646.10;104591;1281;62145;-19
2022/08/13 14:18:43;;;;;;;12.20;7.60;;;;;;;24.51;67.82;98644.05;104369;1281;61114;-19
2022/08/13 14:21:13;;;;;;;13.10;7.80;;;;;;;24.36;67.43;98645.90;104436;1281;74771;-19
2022/08/13 14:23:41;;;;;;;8.60;6.50;;;;;;;24.21;67.89;98637.64;104523;1281;74995;-19
2022/08/13 14:26:11;;;;;;;13.30;7.00;;;;;;;24.00;68.68;98641.82;104488;1281;74266;-18
2022/08/13 14:28:42;;;;;;;9.50;6.90;;;;;;;23.92;69.23;98640.48;104480;1281;61829;-19
2022/08/13 14:31:11;;;;;;;9.20;6.10;;;;;;;23.81;69.63;98631.98;104529;1280;62075;-18
2022/08/13 14:33:40;;;;;;;6.50;5.10;;;;;;;23.77;70.19;98632.85;104264;1280;74736;-19
2022/08/13 14:36:24;;;;;;;8.20;5.80;;;;;;;24.47;68.45;98626.86;104285;1281;75873;-19
2022/08/13 14:39:03;;;;;;;8.70;6.80;;;;;;;24.63;67.05;98622.90;104081;1281;74357;-20
2022/08/13 14:41:47;;;;;;;8.70;5.90;;;;;;;24.49;67.53;98628.46;104229;1281;61074;-19
2022/08/13 14:44:14;;;;;;;9.70;6.20;;;;;;;24.15;68.58;98622.52;104350;1280;61068;-19
2022/08/13 14:47:01;;;;;;;9.40;6.90;;;;;;;23.94;69.04;98623.26;104463;1281;73961;-19
2022/08/13 14:49:40;;;;;;;9.10;6.50;;;;;;;23.85;69.33;98622.58;104551;1281;75046;-19
2022/08/13 14:52:25;;;;;;;9.40;5.30;;;;;;;23.77;69.95;98621.61;104469;1281;74341;-19
2022/08/13 14:55:13;;;;;;;10.70;5.70;;;;;;;24.38;68.23;98618.17;104414;1281;62043;-19
2022/08/13 14:57:42;;;;;;;10.40;6.40;;;;;;;24.66;67.39;98611.02;104190;1281;61098;-19
2022/08/13 15:00:12;;;;;;;7.90;6.50;;;;;;;24.56;67.62;98609.16;104373;1281;74615;-19
2022/08/13 15:02:52;;;;;;;9.50;6.20;;;;;;;24.40;67.88;98613.81;104433;1280;75867;-19
2022/08/13 15:05:40;;;;;;;13.30;7.30;;;;;;;24.12;68.64;98607.27;104505;1280;74466;-19
2022/08/13 15:08:28;;;;;;;12.30;7.00;;;;;;;23.99;69.39;98607.71;104262;1280;61175;-19
2022/08/13 15:11:03;;;;;;;7.60;5.20;;;;;;;23.69;69.96;98607.70;104213;1281;61128;-19
2022/08/13 15:13:45;;;;;;;6.80;5.40;;;;;;;24.23;68.84;98605.23;104236;1281;73609;-19
2022/08/13 15:16:24;;;;;;;12.60;6.20;;;;;;;24.43;67.97;98602.96;104569;1281;75988;-19
2022/08/13 15:18:58;;;;;;;9.70;6.70;;;;;;;24.20;68.72;98604.71;104464;1281;75163;-19
2022/08/13 15:21:37;;;;;;;9.30;6.80;;;;;;;24.09;69.31;98601.50;104155;1280;61109;-19
2022/08/13 15:24:26;;;;;;;7.70;6.50;;;;;;;23.87;69.94;98604.45;104328;1280;61055;-19
2022/08/13 15:27:43;;;;;;;9.10;6.40;;;;;;;23.75;70.65;98604.38;104365;1281;74585;-19
2022/08/13 15:30:14;;;;;;;7.80;5.50;;;;;;;23.71;71.13;98608.25;104267;1281;76240;-19
2022/08/13 15:32:43;;;;;;;8.80;6.20;;;;;;;24.32;69.66;98604.34;104261;1281;74297;-19
2022/08/13 15:35:28;;;;;;;11.30;6.00;;;;;;;24.65;68.16;98601.04;104375;1281;62410;-19
2022/08/13 15:38:15;;;;;;;9.80;7.10;;;;;;;24.61;67.93;98599.39;104230;1281;61179;-19
2022/08/13 15:40:52;;;;;;;18.90;9.70;;;;;;;24.31;68.57;98599.28;104492;1281;74839;-19
2022/08/13 15:43:24;;;;;;;12.30;8.40;;;;;;;23.91;70.07;98598.19;104429;1280;75893;-19
2022/08/13 15:46:08;;;;;;;10.00;7.50;;;;;;;23.73;71.10;98600.92;104426;1280;74436;-19
2022/08/13 15:48:38;;;;;;;9.70;5.50;;;;;;;23.75;70.88;98598.73;104297;1280;64888;-19
2022/08/13 15:51:05;;;;;;;11.70;7.50;;;;;;;24.14;69.96;98596.19;104484;1280;61163;-19
2022/08/13 15:53:32;;;;;;;11.40;8.20;;;;;;;24.30;69.31;98590.46;104198;1280;74689;-19
2022/08/13 15:56:00;;;;;;;43.50;29.30;;;;;;;24.26;69.37;98591.48;104497;1281;75996;-19
2022/08/13 15:58:31;;;;;;;32.40;24.10;;;;;;;24.16;70.05;98588.41;104226;1280;73318;-19
2022/08/13 16:01:02;;;;;;;28.00;20.60;;;;;;;23.92;70.44;98585.96;104260;1281;61035;-19
2022/08/13 16:03:51;;;;;;;53.60;35.20;;;;;;;23.87;71.20;98587.79;104016;1280;62049;-19
2022/08/13 16:06:26;;;;;;;22.50;15.10;;;;;;;23.69;71.63;98591.65;104397;1281;74777;-19
2022/08/13 16:08:54;;;;;;;;;;;;;;;23.97;71.00;98593.20;104329;1280;74968;-18
2022/08/13 16:11:21;;;;;;;47.30;25.50;;;;;;;24.29;70.08;98595.06;104411;1281;74164;-19
2022/08/13 16:14:08;;;;;;;48.60;25.40;;;;;;;24.14;70.44;98590.11;104311;1281;62166;-19
2022/08/13 16:16:48;;;;;;;43.80;24.30;;;;;;;23.87;71.28;98586.90;104368;1281;61157;-19
2022/08/13 16:19:16;;;;;;;31.80;17.10;;;;;;;23.44;73.00;98593.66;104439;1281;74838;-19
2022/08/13 16:22:03;;;;;;;93.80;52.80;;;;;;;23.24;74.21;98603.30;104260;1281;75952;-19
2022/08/13 16:24:32;;;;;;;28.10;17.90;;;;;;;23.26;74.41;98596.58;104318;1281;74564;-19
2022/08/13 16:27:03;;;;;;;32.50;19.10;;;;;;;23.76;72.81;98595.49;104545;1280;62040;-19
2022/08/13 16:29:36;;;;;;;20.70;13.70;;;;;;;23.75;72.72;98594.70;104391;1281;61208;-19
2022/08/13 16:32:06;;;;;;;15.40;10.50;;;;;;;23.59;73.29;98595.80;104335;1280;74924;-19
2022/08/13 16:34:43;;;;;;;19.00;10.40;;;;;;;23.47;73.82;98596.29;104292;1280;75871;-19